sensor_id;sensor_type;location;lat;lon;timestamp;pressure;altitude;pressure_sealevel;temperature;humidity
54248;BME280;40161;39.768;2.722;2022-11-13T00:01:23;101914.13;;;15.38;96.70
54248;BME280;40161;39.768;2.722;2022-11-13T00:03:49;101922.66;;;15.30;97.39
54248;BME280;40161;39.768;2.722;2022-11-13T00:06:16;101919.78;;;15.23;98.68
54248;BME280;40161;39.768;2.722;2022-11-13T00:08:42;101907.72;;;15.11;99.77
54248;BME280;40161;39.768;2.722;2022-11-13T00:11:16;101912.16;;;15.16;100.00
54248;BME280;40161;39.768;2.722;2022-11-13T00:13:42;101907.66;;;15.31;99.16
54248;BME280;40161;39.768;2.722;2022-11-13T00:16:11;101924.78;;;15.63;96.80
54248;BME280;40161;39.768;2.722;2022-11-13T00:18:38;101929.88;;;15.84;93.70
54248;BME280;40161;39.768;2.722;2022-11-13T00:21:10;101929.53;;;15.62;93.01
54248;BME280;40161;39.768;2.722;2022-11-13T00:23:37;101909.94;;;15.25;95.42
54248;BME280;40161;39.768;2.722;2022-11-13T00:26:08;101918.66;;;15.27;97.31
54248;BME280;40161;39.768;2.722;2022-11-13T00:28:34;101923.72;;;15.22;98.53
54248;BME280;40161;39.768;2.722;2022-11-13T00:31:01;101904.72;;;15.20;98.27
54248;BME280;40161;39.768;2.722;2022-11-13T00:33:27;101909.28;;;15.32;97.44
54248;BME280;40161;39.768;2.722;2022-11-13T00:35:52;101901.38;;;15.34;95.69
54248;BME280;40161;39.768;2.722;2022-11-13T00:38:18;101905.81;;;15.15;95.85
54248;BME280;40161;39.768;2.722;2022-11-13T00:40:44;101902.84;;;15.28;96.07
54248;BME280;40161;39.768;2.722;2022-11-13T00:43:09;101890.47;;;15.18;96.21
54248;BME280;40161;39.768;2.722;2022-11-13T00:45:35;101887.47;;;15.04;96.97
54248;BME280;40161;39.768;2.722;2022-11-13T00:48:00;101902.50;;;15.29;98.16
54248;BME280;40161;39.768;2.722;2022-11-13T00:50:26;101892.91;;;15.23;96.74
54248;BME280;40161;39.768;2.722;2022-11-13T00:52:52;101906.28;;;15.44;96.76
54248;BME280;40161;39.768;2.722;2022-11-13T00:55:17;101905.59;;;15.51;94.47
54248;BME280;40161;39.768;2.722;2022-11-13T00:57:43;101883.06;;;15.49;93.80
54248;BME280;40161;39.768;2.722;2022-11-13T01:00:09;101892.00;;;15.38;94.03
54248;BME280;40161;39.768;2.722;2022-11-13T01:02:34;101898.88;;;15.02;96.72
54248;BME280;40161;39.768;2.722;2022-11-13T01:05:00;101901.91;;;14.93;100.00
54248;BME280;40161;39.768;2.722;2022-11-13T01:07:26;101898.31;;;14.93;100.00
54248;BME280;40161;39.768;2.722;2022-11-13T01:09:51;101900.47;;;15.03;100.00
54248;BME280;40161;39.768;2.722;2022-11-13T01:12:17;101896.75;;;15.15;100.00
54248;BME280;40161;39.768;2.722;2022-11-13T01:14:42;101901.13;;;14.96;99.01
54248;BME280;40161;39.768;2.722;2022-11-13T01:17:08;101906.56;;;15.12;100.00
54248;BME280;40161;39.768;2.722;2022-11-13T01:19:33;101893.09;;;15.34;100.00
54248;BME280;40161;39.768;2.722;2022-11-13T01:21:59;101875.19;;;15.28;99.75
54248;BME280;40161;39.768;2.722;2022-11-13T01:24:24;101889.75;;;15.48;100.00
54248;BME280;40161;39.768;2.722;2022-11-13T01:26:50;101886.00;;;15.59;99.69
54248;BME280;40161;39.768;2.722;2022-11-13T01:29:16;101886.34;;;15.58;98.09
54248;BME280;40161;39.768;2.722;2022-11-13T01:31:41;101874.53;;;15.34;98.64
54248;BME280;40161;39.768;2.722;2022-11-13T01:34:06;101875.41;;;15.38;100.00
54248;BME280;40161;39.768;2.722;2022-11-13T01:36:32;101874.56;;;15.38;100.00
54248;BME280;40161;39.768;2.722;2022-11-13T01:38:58;101862.78;;;15.41;100.00
54248;BME280;40161;39.768;2.722;2022-11-13T01:41:29;101888.53;;;15.45;99.37
54248;BME280;40161;39.768;2.722;2022-11-13T01:43:56;101866.91;;;15.28;100.00
54248;BME280;40161;39.768;2.722;2022-11-13T01:46:34;101879.94;;;15.27;100.00
54248;BME280;40161;39.768;2.722;2022-11-13T01:49:16;101878.63;;;15.17;100.00
54248;BME280;40161;39.768;2.722;2022-11-13T01:54:16;101872.94;;;15.10;100.00
54248;BME280;40161;39.768;2.722;2022-11-13T01:56:43;101876.53;;;15.11;100.00
54248;BME280;40161;39.768;2.722;2022-11-13T01:59:12;101871.84;;;15.15;100.00
54248;BME280;40161;39.768;2.722;2022-11-13T02:01:39;101864.03;;;15.20;100.00
54248;BME280;40161;39.768;2.722;2022-11-13T02:04:04;101867.47;;;15.37;100.00
54248;BME280;40161;39.768;2.722;2022-11-13T02:06:35;101861.63;;;15.42;100.00
54248;BME280;40161;39.768;2.722;2022-11-13T02:09:02;101839.53;;;15.46;100.00
54248;BME280;40161;39.768;2.722;2022-11-13T02:11:28;101863.53;;;15.64;99.68
54248;BME280;40161;39.768;2.722;2022-11-13T02:13:53;101854.50;;;15.68;99.49
54248;BME280;40161;39.768;2.722;2022-11-13T02:16:20;101844.94;;;15.65;99.47
54248;BME280;40161;39.768;2.722;2022-11-13T02:18:46;101846.66;;;15.70;98.98
54248;BME280;40161;39.768;2.722;2022-11-13T02:21:37;101851.22;;;15.62;98.94
54248;BME280;40161;39.768;2.722;2022-11-13T02:24:20;101848.75;;;15.53;100.00
54248;BME280;40161;39.768;2.722;2022-11-13T02:26:49;101844.91;;;15.61;100.00
54248;BME280;40161;39.768;2.722;2022-11-13T02:29:15;101838.09;;;15.55;100.00
54248;BME280;40161;39.768;2.722;2022-11-13T02:31:40;101846.88;;;15.34;99.55
54248;BME280;40161;39.768;2.722;2022-11-13T02:34:06;101843.19;;;15.27;100.00
54248;BME280;40161;39.768;2.722;2022-11-13T02:36:32;101839.97;;;15.21;100.00
54248;BME280;40161;39.768;2.722;2022-11-13T02:39:01;101854.25;;;15.27;100.00
54248;BME280;40161;39.768;2.722;2022-11-13T02:41:28;101850.09;;;15.13;100.00
54248;BME280;40161;39.768;2.722;2022-11-13T02:43:53;101850.66;;;15.00;100.00
54248;BME280;40161;39.768;2.722;2022-11-13T02:46:18;101862.03;;;14.94;100.00
54248;BME280;40161;39.768;2.722;2022-11-13T02:48:44;101860.84;;;14.95;100.00
54248;BME280;40161;39.768;2.722;2022-11-13T02:51:09;101864.59;;;15.07;100.00
54248;BME280;40161;39.768;2.722;2022-11-13T02:53:35;101864.84;;;15.21;100.00
54248;BME280;40161;39.768;2.722;2022-11-13T02:56:00;101858.19;;;15.26;100.00
54248;BME280;40161;39.768;2.722;2022-11-13T02:58:26;101861.06;;;15.33;100.00
54248;BME280;40161;39.768;2.722;2022-11-13T03:00:51;101863.56;;;15.41;100.00
54248;BME280;40161;39.768;2.722;2022-11-13T03:03:17;101844.91;;;15.35;100.00
54248;BME280;40161;39.768;2.722;2022-11-13T03:05:47;101843.50;;;15.48;100.00
54248;BME280;40161;39.768;2.722;2022-11-13T03:08:12;101841.66;;;15.29;98.62
54248;BME280;40161;39.768;2.722;2022-11-13T03:10:38;101837.28;;;15.02;99.04
54248;BME280;40161;39.768;2.722;2022-11-13T03:13:03;101835.25;;;14.99;100.00
54248;BME280;40161;39.768;2.722;2022-11-13T03:15:29;101852.06;;;15.13;100.00
54248;BME280;40161;39.768;2.722;2022-11-13T03:17:54;101826.16;;;14.75;100.00
54248;BME280;40161;39.768;2.722;2022-11-13T03:20:20;101815.16;;;14.79;100.00
54248;BME280;40161;39.768;2.722;2022-11-13T03:22:45;101829.78;;;15.02;100.00
54248;BME280;40161;39.768;2.722;2022-11-13T03:25:10;101829.78;;;15.02;100.00
54248;BME280;40161;39.768;2.722;2022-11-13T03:27:36;101823.81;;;15.00;100.00
54248;BME280;40161;39.768;2.722;2022-11-13T03:30:03;101817.31;;;14.89;100.00
54248;BME280;40161;39.768;2.722;2022-11-13T03:32:29;101835.13;;;14.91;100.00
54248;BME280;40161;39.768;2.722;2022-11-13T03:34:54;101833.59;;;14.94;100.00
54248;BME280;40161;39.768;2.722;2022-11-13T03:37:20;101819.38;;;14.95;100.00
54248;BME280;40161;39.768;2.722;2022-11-13T03:39:45;101821.41;;;15.22;100.00
54248;BME280;40161;39.768;2.722;2022-11-13T03:42:11;101810.19;;;15.11;100.00
54248;BME280;40161;39.768;2.722;2022-11-13T03:44:36;101808.38;;;14.99;100.00
54248;BME280;40161;39.768;2.722;2022-11-13T03:47:02;101807.44;;;14.88;100.00
54248;BME280;40161;39.768;2.722;2022-11-13T03:49:27;101838.84;;;15.03;100.00
54248;BME280;40161;39.768;2.722;2022-11-13T03:51:53;101820.25;;;15.00;100.00
54248;BME280;40161;39.768;2.722;2022-11-13T03:54:18;101798.00;;;14.92;100.00
54248;BME280;40161;39.768;2.722;2022-11-13T03:56:44;101806.19;;;15.08;100.00
54248;BME280;40161;39.768;2.722;2022-11-13T03:59:09;101788.63;;;14.97;100.00
54248;BME280;40161;39.768;2.722;2022-11-13T04:01:35;101806.97;;;15.09;100.00
54248;BME280;40161;39.768;2.722;2022-11-13T04:04:00;101812.06;;;15.07;100.00
54248;BME280;40161;39.768;2.722;2022-11-13T04:06:26;101811.66;;;15.05;100.00
54248;BME280;40161;39.768;2.722;2022-11-13T04:08:52;101795.06;;;15.05;100.00
54248;BME280;40161;39.768;2.722;2022-11-13T04:11:18;101793.47;;;15.04;100.00
54248;BME280;40161;39.768;2.722;2022-11-13T04:13:43;101782.59;;;15.14;100.00
54248;BME280;40161;39.768;2.722;2022-11-13T04:16:09;101791.09;;;15.29;100.00
54248;BME280;40161;39.768;2.722;2022-11-13T04:18:34;101780.72;;;15.22;100.00
54248;BME280;40161;39.768;2.722;2022-11-13T04:21:02;101784.88;;;15.35;100.00
54248;BME280;40161;39.768;2.722;2022-11-13T04:23:28;101765.56;;;15.39;100.00
54248;BME280;40161;39.768;2.722;2022-11-13T04:25:53;101785.97;;;15.57;100.00
54248;BME280;40161;39.768;2.722;2022-11-13T04:28:19;101781.59;;;15.56;100.00
54248;BME280;40161;39.768;2.722;2022-11-13T04:30:45;101766.50;;;15.50;100.00
54248;BME280;40161;39.768;2.722;2022-11-13T04:33:10;101768.91;;;15.55;100.00
54248;BME280;40161;39.768;2.722;2022-11-13T04:35:36;101771.09;;;15.39;100.00
54248;BME280;40161;39.768;2.722;2022-11-13T04:38:01;101742.16;;;15.06;100.00
54248;BME280;40161;39.768;2.722;2022-11-13T04:40:27;101780.66;;;15.18;100.00
54248;BME280;40161;39.768;2.722;2022-11-13T04:42:53;101758.00;;;15.09;100.00
54248;BME280;40161;39.768;2.722;2022-11-13T04:45:20;101762.78;;;15.12;100.00
54248;BME280;40161;39.768;2.722;2022-11-13T04:47:46;101759.97;;;15.09;100.00
54248;BME280;40161;39.768;2.722;2022-11-13T04:50:13;101761.84;;;15.01;100.00
54248;BME280;40161;39.768;2.722;2022-11-13T04:52:39;101759.38;;;14.96;100.00
54248;BME280;40161;39.768;2.722;2022-11-13T04:55:05;101753.78;;;14.92;100.00
54248;BME280;40161;39.768;2.722;2022-11-13T04:57:30;101734.41;;;14.89;100.00
54248;BME280;40161;39.768;2.722;2022-11-13T04:59:56;101719.16;;;14.99;100.00
54248;BME280;40161;39.768;2.722;2022-11-13T05:02:22;101741.13;;;15.14;100.00
54248;BME280;40161;39.768;2.722;2022-11-13T05:04:47;101737.94;;;14.89;100.00
54248;BME280;40161;39.768;2.722;2022-11-13T05:07:13;101728.97;;;14.96;100.00
54248;BME280;40161;39.768;2.722;2022-11-13T05:09:39;101714.00;;;14.97;100.00
54248;BME280;40161;39.768;2.722;2022-11-13T05:12:05;101703.34;;;14.99;100.00
54248;BME280;40161;39.768;2.722;2022-11-13T05:14:36;101690.81;;;15.05;100.00
54248;BME280;40161;39.768;2.722;2022-11-13T05:17:02;101680.88;;;15.01;100.00
54248;BME280;40161;39.768;2.722;2022-11-13T05:19:28;101702.88;;;15.20;100.00
54248;BME280;40161;39.768;2.722;2022-11-13T05:21:53;101688.75;;;14.99;100.00
54248;BME280;40161;39.768;2.722;2022-11-13T05:24:19;101696.13;;;14.64;100.00
54248;BME280;40161;39.768;2.722;2022-11-13T05:26:44;101694.38;;;14.79;100.00
54248;BME280;40161;39.768;2.722;2022-11-13T05:29:10;101674.88;;;14.68;100.00
54248;BME280;40161;39.768;2.722;2022-11-13T05:31:35;101693.91;;;14.74;100.00
54248;BME280;40161;39.768;2.722;2022-11-13T05:34:04;101699.69;;;14.91;100.00
54248;BME280;40161;39.768;2.722;2022-11-13T05:36:30;101687.09;;;14.67;100.00
54248;BME280;40161;39.768;2.722;2022-11-13T05:38:56;101675.44;;;14.55;100.00
54248;BME280;40161;39.768;2.722;2022-11-13T05:41:22;101689.47;;;14.69;100.00
54248;BME280;40161;39.768;2.722;2022-11-13T05:43:48;101677.63;;;14.68;100.00
54248;BME280;40161;39.768;2.722;2022-11-13T05:46:26;101702.50;;;14.68;100.00
54248;BME280;40161;39.768;2.722;2022-11-13T05:48:59;101679.06;;;14.36;99.97
54248;BME280;40161;39.768;2.722;2022-11-13T05:51:27;101684.25;;;14.41;100.00
54248;BME280;40161;39.768;2.722;2022-11-13T05:53:54;101686.22;;;14.40;100.00
54248;BME280;40161;39.768;2.722;2022-11-13T05:56:25;101665.25;;;14.36;100.00
54248;BME280;40161;39.768;2.722;2022-11-13T05:58:52;101668.13;;;14.43;100.00
54248;BME280;40161;39.768;2.722;2022-11-13T06:03:57;101670.16;;;14.46;100.00
54248;BME280;40161;39.768;2.722;2022-11-13T06:06:24;101640.44;;;14.39;100.00
54248;BME280;40161;39.768;2.722;2022-11-13T06:08:51;101657.28;;;14.54;100.00
54248;BME280;40161;39.768;2.722;2022-11-13T06:11:20;101679.66;;;14.71;100.00
54248;BME280;40161;39.768;2.722;2022-11-13T06:13:47;101665.00;;;14.67;100.00
54248;BME280;40161;39.768;2.722;2022-11-13T06:16:15;101677.78;;;14.79;98.58
54248;BME280;40161;39.768;2.722;2022-11-13T06:18:42;101681.22;;;14.72;99.46
54248;BME280;40161;39.768;2.722;2022-11-13T06:21:11;101674.41;;;14.63;97.96
54248;BME280;40161;39.768;2.722;2022-11-13T06:23:38;101681.09;;;14.39;100.00
54248;BME280;40161;39.768;2.722;2022-11-13T06:26:06;101656.47;;;14.30;100.00
54248;BME280;40161;39.768;2.722;2022-11-13T06:28:33;101664.69;;;14.27;98.96
54248;BME280;40161;39.768;2.722;2022-11-13T06:31:07;101675.84;;;14.11;99.26
54248;BME280;40161;39.768;2.722;2022-11-13T06:33:33;101672.34;;;14.14;100.00
54248;BME280;40161;39.768;2.722;2022-11-13T06:36:16;101659.53;;;14.02;99.87
54248;BME280;40161;39.768;2.722;2022-11-13T06:38:42;101687.75;;;14.15;100.00
54248;BME280;40161;39.768;2.722;2022-11-13T06:41:11;101682.78;;;14.24;100.00
54248;BME280;40161;39.768;2.722;2022-11-13T06:43:37;101683.16;;;14.45;99.40
54248;BME280;40161;39.768;2.722;2022-11-13T06:46:06;101699.13;;;14.33;96.89
54248;BME280;40161;39.768;2.722;2022-11-13T06:48:32;101688.38;;;14.05;98.79
54248;BME280;40161;39.768;2.722;2022-11-13T06:51:02;101717.19;;;14.07;98.07
54248;BME280;40161;39.768;2.722;2022-11-13T06:53:29;101703.94;;;14.16;98.17
54248;BME280;40161;39.768;2.722;2022-11-13T06:55:55;101712.28;;;14.20;97.33
54248;BME280;40161;39.768;2.722;2022-11-13T06:58:20;101706.38;;;13.98;97.35
54248;BME280;40161;39.768;2.722;2022-11-13T07:00:46;101716.03;;;14.08;98.65
54248;BME280;40161;39.768;2.722;2022-11-13T07:03:22;101732.91;;;14.26;97.33
54248;BME280;40161;39.768;2.722;2022-11-13T07:05:47;101728.97;;;14.27;97.20
54248;BME280;40161;39.768;2.722;2022-11-13T07:08:14;101732.13;;;14.25;96.73
54248;BME280;40161;39.768;2.722;2022-11-13T07:10:40;101712.53;;;14.11;94.83
54248;BME280;40161;39.768;2.722;2022-11-13T07:13:08;101704.88;;;13.82;96.74
54248;BME280;40161;39.768;2.722;2022-11-13T07:15:35;101720.00;;;14.11;96.91
54248;BME280;40161;39.768;2.722;2022-11-13T07:18:02;101726.47;;;14.18;95.69
54248;BME280;40161;39.768;2.722;2022-11-13T07:20:28;101729.25;;;13.99;94.20
54248;BME280;40161;39.768;2.722;2022-11-13T07:22:55;101737.31;;;13.88;98.60
54248;BME280;40161;39.768;2.722;2022-11-13T07:25:21;101723.31;;;13.77;97.15
54248;BME280;40161;39.768;2.722;2022-11-13T07:27:46;101715.47;;;13.80;97.63
54248;BME280;40161;39.768;2.722;2022-11-13T07:30:12;101729.91;;;14.12;96.59
54248;BME280;40161;39.768;2.722;2022-11-13T07:32:37;101711.53;;;14.00;94.66
54248;BME280;40161;39.768;2.722;2022-11-13T07:35:03;101694.47;;;13.94;95.04
54248;BME280;40161;39.768;2.722;2022-11-13T07:37:29;101719.28;;;14.14;93.69
54248;BME280;40161;39.768;2.722;2022-11-13T07:39:54;101725.81;;;14.25;93.89
54248;BME280;40161;39.768;2.722;2022-11-13T07:42:20;101713.34;;;14.12;92.39
54248;BME280;40161;39.768;2.722;2022-11-13T07:44:45;101713.56;;;14.03;92.19
54248;BME280;40161;39.768;2.722;2022-11-13T07:47:11;101716.50;;;13.71;95.02
54248;BME280;40161;39.768;2.722;2022-11-13T07:49:36;101714.25;;;13.58;96.21
54248;BME280;40161;39.768;2.722;2022-11-13T07:52:02;101738.69;;;13.78;97.53
54248;BME280;40161;39.768;2.722;2022-11-13T07:54:28;101703.94;;;13.54;97.03
54248;BME280;40161;39.768;2.722;2022-11-13T07:56:53;101725.69;;;13.79;97.39
54248;BME280;40161;39.768;2.722;2022-11-13T07:59:19;101736.09;;;13.86;97.15
54248;BME280;40161;39.768;2.722;2022-11-13T08:01:44;101733.59;;;14.00;96.35
54248;BME280;40161;39.768;2.722;2022-11-13T08:04:10;101726.94;;;14.01;95.88
54248;BME280;40161;39.768;2.722;2022-11-13T08:06:36;101741.41;;;13.94;95.58
54248;BME280;40161;39.768;2.722;2022-11-13T08:09:02;101715.25;;;13.69;97.12
54248;BME280;40161;39.768;2.722;2022-11-13T08:11:27;101758.88;;;13.83;98.45
54248;BME280;40161;39.768;2.722;2022-11-13T08:13:53;101769.91;;;13.83;99.39
54248;BME280;40161;39.768;2.722;2022-11-13T08:16:18;101758.16;;;13.86;99.13
54248;BME280;40161;39.768;2.722;2022-11-13T08:18:44;101732.78;;;13.76;98.08
54248;BME280;40161;39.768;2.722;2022-11-13T08:21:09;101769.53;;;14.04;96.92
54248;BME280;40161;39.768;2.722;2022-11-13T08:23:35;101770.19;;;14.16;95.08
54248;BME280;40161;39.768;2.722;2022-11-13T08:26:05;101767.81;;;14.15;93.43
54248;BME280;40161;39.768;2.722;2022-11-13T08:28:31;101752.91;;;14.00;92.58
54248;BME280;40161;39.768;2.722;2022-11-13T08:30:56;101794.97;;;14.13;94.72
54248;BME280;40161;39.768;2.722;2022-11-13T08:33:22;101761.84;;;13.93;94.22
54248;BME280;40161;39.768;2.722;2022-11-13T08:35:58;101786.75;;;13.97;95.68
54248;BME280;40161;39.768;2.722;2022-11-13T08:38:24;101796.81;;;14.05;95.22
54248;BME280;40161;39.768;2.722;2022-11-13T08:40:50;101788.53;;;14.05;92.85
54248;BME280;40161;39.768;2.722;2022-11-13T08:43:17;101780.81;;;14.14;92.24
54248;BME280;40161;39.768;2.722;2022-11-13T08:45:45;101763.34;;;13.87;90.57
54248;BME280;40161;39.768;2.722;2022-11-13T08:48:11;101781.09;;;14.09;90.37
54248;BME280;40161;39.768;2.722;2022-11-13T08:50:37;101796.22;;;14.15;88.94
54248;BME280;40161;39.768;2.722;2022-11-13T08:53:04;101785.81;;;14.28;87.96
54248;BME280;40161;39.768;2.722;2022-11-13T08:55:31;101800.38;;;14.48;88.11
54248;BME280;40161;39.768;2.722;2022-11-13T08:57:58;101787.53;;;14.56;88.39
54248;BME280;40161;39.768;2.722;2022-11-13T09:00:25;101792.13;;;14.71;88.12
54248;BME280;40161;39.768;2.722;2022-11-13T09:02:58;101785.88;;;14.74;88.37
54248;BME280;40161;39.768;2.722;2022-11-13T09:05:25;101792.81;;;14.87;87.48
54248;BME280;40161;39.768;2.722;2022-11-13T09:07:50;101767.81;;;14.80;87.49
54248;BME280;40161;39.768;2.722;2022-11-13T09:10:17;101791.13;;;15.06;87.48
54248;BME280;40161;39.768;2.722;2022-11-13T09:12:43;101773.75;;;15.05;86.81
54248;BME280;40161;39.768;2.722;2022-11-13T09:15:09;101785.88;;;15.24;86.64
54248;BME280;40161;39.768;2.722;2022-11-13T09:17:35;101776.81;;;15.27;85.49
54248;BME280;40161;39.768;2.722;2022-11-13T09:20:01;101779.00;;;15.40;85.65
54248;BME280;40161;39.768;2.722;2022-11-13T09:22:26;101775.59;;;15.51;85.50
54248;BME280;40161;39.768;2.722;2022-11-13T09:24:52;101751.38;;;15.44;84.79
54248;BME280;40161;39.768;2.722;2022-11-13T09:27:17;101777.97;;;15.79;86.41
54248;BME280;40161;39.768;2.722;2022-11-13T09:29:43;101774.44;;;15.82;86.54
54248;BME280;40161;39.768;2.722;2022-11-13T09:32:09;101782.94;;;16.00;86.97
54248;BME280;40161;39.768;2.722;2022-11-13T09:34:34;101790.94;;;16.05;86.85
54248;BME280;40161;39.768;2.722;2022-11-13T09:37:00;101783.09;;;16.10;86.30
54248;BME280;40161;39.768;2.722;2022-11-13T09:39:25;101794.69;;;16.23;86.85
54248;BME280;40161;39.768;2.722;2022-11-13T09:41:55;101784.13;;;16.32;86.80
54248;BME280;40161;39.768;2.722;2022-11-13T09:44:30;101786.56;;;16.41;86.66
54248;BME280;40161;39.768;2.722;2022-11-13T10:26:42;101762.56;;;17.63;84.41
54248;BME280;40161;39.768;2.722;2022-11-13T10:29:13;101751.84;;;17.65;83.31
54248;BME280;40161;39.768;2.722;2022-11-13T10:34:08;101765.06;;;17.89;81.68
54248;BME280;40161;39.768;2.722;2022-11-13T10:36:41;101720.97;;;17.70;81.53
54248;BME280;40161;39.768;2.722;2022-11-13T10:39:11;101752.38;;;17.92;80.59
54248;BME280;40161;39.768;2.722;2022-11-13T10:41:53;101751.25;;;18.07;80.10
54248;BME280;40161;39.768;2.722;2022-11-13T10:44:24;101740.53;;;18.13;80.12
54248;BME280;40161;39.768;2.722;2022-11-13T10:46:50;101720.72;;;18.11;79.16
54248;BME280;40161;39.768;2.722;2022-11-13T10:49:26;101728.66;;;18.23;79.28
54248;BME280;40161;39.768;2.722;2022-11-13T10:51:56;101723.88;;;18.20;78.49
54248;BME280;40161;39.768;2.722;2022-11-13T10:57:13;101721.94;;;18.38;78.32
54248;BME280;40161;39.768;2.722;2022-11-13T10:59:44;101715.97;;;18.43;77.20
54248;BME280;40161;39.768;2.722;2022-11-13T11:02:19;101711.22;;;18.51;76.58
54248;BME280;40161;39.768;2.722;2022-11-13T11:04:46;101708.84;;;18.57;76.21
54248;BME280;40161;39.768;2.722;2022-11-13T11:09:40;101710.47;;;18.76;74.13
54248;BME280;40161;39.768;2.722;2022-11-13T11:12:13;101708.06;;;18.81;74.48
54248;BME280;40161;39.768;2.722;2022-11-13T11:17:40;101715.22;;;18.96;72.45
54248;BME280;40161;39.768;2.722;2022-11-13T11:20:45;101708.41;;;19.05;71.67
54248;BME280;40161;39.768;2.722;2022-11-13T11:26:27;101689.34;;;19.07;72.40
54248;BME280;40161;39.768;2.722;2022-11-13T11:31:50;101690.94;;;19.11;72.27
54248;BME280;40161;39.768;2.722;2022-11-13T11:37:05;101671.84;;;19.17;72.27
54248;BME280;40161;39.768;2.722;2022-11-13T11:39:48;101669.06;;;19.17;72.01
54248;BME280;40161;39.768;2.722;2022-11-13T11:45:19;101660.69;;;19.20;71.13
54248;BME280;40161;39.768;2.722;2022-11-13T11:47:45;101657.50;;;19.18;70.65
54248;BME280;40161;39.768;2.722;2022-11-13T11:50:15;101658.69;;;19.25;70.98
54248;BME280;40161;39.768;2.722;2022-11-13T11:53:04;101652.34;;;19.24;71.72
54248;BME280;40161;39.768;2.722;2022-11-13T11:59:04;101661.44;;;19.32;70.73
54248;BME280;40161;39.768;2.722;2022-11-13T12:05:07;101665.41;;;19.34;71.31
54248;BME280;40161;39.768;2.722;2022-11-13T12:15:13;101635.19;;;19.36;71.99
54248;BME280;40161;39.768;2.722;2022-11-13T12:20:50;101640.66;;;19.51;72.10
54248;BME280;40161;39.768;2.722;2022-11-13T12:26:25;101627.56;;;19.44;72.25
54248;BME280;40161;39.768;2.722;2022-11-13T12:34:12;101609.69;;;19.49;71.01
54248;BME280;40161;39.768;2.722;2022-11-13T12:36:40;101610.84;;;19.48;70.36
54248;BME280;40161;39.768;2.722;2022-11-13T12:39:42;101608.47;;;19.50;70.71
54248;BME280;40161;39.768;2.722;2022-11-13T12:42:27;101602.13;;;19.49;70.66
54248;BME280;40161;39.768;2.722;2022-11-13T12:47:42;101590.19;;;19.52;70.18
54248;BME280;40161;39.768;2.722;2022-11-13T12:50:29;101578.28;;;19.44;69.23
54248;BME280;40161;39.768;2.722;2022-11-13T12:53:06;101577.47;;;19.48;70.37
54248;BME280;40161;39.768;2.722;2022-11-13T12:55:36;101580.63;;;19.53;69.98
54248;BME280;40161;39.768;2.722;2022-11-13T12:58:23;101577.81;;;19.57;70.87
54248;BME280;40161;39.768;2.722;2022-11-13T13:01:13;101564.69;;;19.54;70.38
54248;BME280;40161;39.768;2.722;2022-11-13T13:11:56;101562.69;;;19.65;68.59
54248;BME280;40161;39.768;2.722;2022-11-13T13:19:38;101547.53;;;19.70;70.65
54248;BME280;40161;39.768;2.722;2022-11-13T13:22:09;101530.84;;;19.62;70.97
54248;BME280;40161;39.768;2.722;2022-11-13T13:24:36;101546.28;;;19.74;71.26
54248;BME280;40161;39.768;2.722;2022-11-13T13:27:21;101541.16;;;19.73;69.78
54248;BME280;40161;39.768;2.722;2022-11-13T13:29:47;101522.50;;;19.66;68.73
54248;BME280;40161;39.768;2.722;2022-11-13T13:32:17;101532.38;;;19.74;68.44
54248;BME280;40161;39.768;2.722;2022-11-13T13:35:23;101537.53;;;19.79;68.84
54248;BME280;40161;39.768;2.722;2022-11-13T13:38:00;101527.97;;;19.77;69.44
54248;BME280;40161;39.768;2.722;2022-11-13T13:46:30;101530.84;;;19.66;69.52
54248;BME280;40161;39.768;2.722;2022-11-13T13:49:02;101533.25;;;19.60;69.66
54248;BME280;40161;39.768;2.722;2022-11-13T13:51:33;101542.81;;;19.63;69.89
54248;BME280;40161;39.768;2.722;2022-11-13T13:54:00;101544.41;;;19.57;69.71
54248;BME280;40161;39.768;2.722;2022-11-13T13:56:30;101532.09;;;19.51;70.12
54248;BME280;40161;39.768;2.722;2022-11-13T13:58:55;101536.50;;;19.52;70.12
54248;BME280;40161;39.768;2.722;2022-11-13T14:01:33;101528.19;;;19.44;70.33
54248;BME280;40161;39.768;2.722;2022-11-13T14:04:14;101535.72;;;19.51;70.28
54248;BME280;40161;39.768;2.722;2022-11-13T14:06:53;101551.56;;;19.54;69.45
54248;BME280;40161;39.768;2.722;2022-11-13T14:09:21;101546.84;;;19.51;69.09
54248;BME280;40161;39.768;2.722;2022-11-13T14:12:02;101535.34;;;19.45;69.59
54248;BME280;40161;39.768;2.722;2022-11-13T14:14:28;101542.91;;;19.45;69.16
54248;BME280;40161;39.768;2.722;2022-11-13T14:16:57;101547.63;;;19.52;69.04
54248;BME280;40161;39.768;2.722;2022-11-13T14:19:23;101540.91;;;19.45;69.40
54248;BME280;40161;39.768;2.722;2022-11-13T14:21:53;101546.41;;;19.53;69.25
54248;BME280;40161;39.768;2.722;2022-11-13T14:24:24;101539.31;;;19.44;69.17
54248;BME280;40161;39.768;2.722;2022-11-13T14:26:52;101538.91;;;19.46;69.59
54248;BME280;40161;39.768;2.722;2022-11-13T14:31:48;101511.97;;;19.29;69.32
54248;BME280;40161;39.768;2.722;2022-11-13T14:34:18;101502.84;;;19.28;70.25
54248;BME280;40161;39.768;2.722;2022-11-13T14:36:44;101517.09;;;19.34;69.43
54248;BME280;40161;39.768;2.722;2022-11-13T14:39:21;101528.59;;;19.43;69.87
54248;BME280;40161;39.768;2.722;2022-11-13T14:41:58;101523.81;;;19.43;69.71
54248;BME280;40161;39.768;2.722;2022-11-13T14:44:30;101508.75;;;19.34;69.60
54248;BME280;40161;39.768;2.722;2022-11-13T14:47:04;101517.47;;;19.39;70.07
54248;BME280;40161;39.768;2.722;2022-11-13T14:49:35;101511.19;;;19.28;70.58